createdAt,value
2023-05-05T00:03:34.987Z,73.5
2023-05-05T00:08:34.876Z,72.5
2023-05-05T00:13:34.893Z,72.2
2023-05-05T00:18:34.900Z,72.8
2023-05-05T00:23:34.920Z,72.6
2023-05-05T00:28:34.933Z,73.3
2023-05-05T00:38:34.906Z,73.7
2023-05-05T00:43:34.907Z,73.2
2023-05-05T00:48:34.915Z,74.8
2023-05-05T00:53:34.944Z,75.0
2023-05-05T00:58:34.947Z,74.8
2023-05-05T01:01:39.332Z,75.4
2023-05-05T01:03:35.055Z,75.4
2023-05-05T01:08:34.917Z,75.8
2023-05-05T01:13:34.927Z,75.4
2023-05-05T01:18:34.927Z,75.8
2023-05-05T01:23:34.977Z,76.2
2023-05-05T01:28:34.972Z,76.4
2023-05-05T01:33:34.932Z,77.3
2023-05-05T01:38:34.949Z,78.2
2023-05-05T01:43:34.964Z,77.8
2023-05-05T01:48:34.961Z,78.1
2023-05-05T01:53:34.964Z,77.7
2023-05-05T01:58:34.969Z,77.6
2023-05-05T02:03:35.026Z,77.9
2023-05-05T02:08:34.957Z,77.0
2023-05-05T02:13:34.986Z,76.4
2023-05-05T02:18:34.975Z,75.1
2023-05-05T02:23:34.988Z,74.1
2023-05-05T02:28:34.996Z,73.6
2023-05-05T02:33:34.986Z,73.5
2023-05-05T02:38:34.987Z,73.3
2023-05-05T02:43:34.984Z,73.5
2023-05-05T02:48:34.994Z,73.5
2023-05-05T02:53:35.001Z,73.8
2023-05-05T02:58:35.015Z,74.1
2023-05-05T03:03:35.064Z,74.6
2023-05-05T03:08:35.000Z,75.5
2023-05-05T03:13:34.996Z,76.2
2023-05-05T03:18:35.005Z,77.4
2023-05-05T03:23:35.036Z,78.0
2023-05-05T03:28:35.023Z,78.3
2023-05-05T03:33:35.012Z,79.1
2023-05-05T03:38:35.027Z,78.9
2023-05-05T03:43:35.015Z,79.2
2023-05-05T03:48:35.018Z,79.3
2023-05-05T03:53:35.041Z,79.2
2023-05-05T03:58:35.068Z,79.1
2023-05-05T04:03:35.125Z,79.2
2023-05-05T04:08:35.048Z,79.6
2023-05-05T04:13:35.041Z,80.0
2023-05-05T04:18:35.045Z,80.2
2023-05-05T04:23:35.071Z,81.1
2023-05-05T04:28:35.085Z,81.5
2023-05-05T04:33:35.050Z,81.8
2023-05-05T04:38:35.064Z,81.7
2023-05-05T04:43:35.065Z,81.7
2023-05-05T04:48:35.064Z,82.0
2023-05-05T04:53:35.100Z,82.4
2023-05-05T04:58:35.095Z,82.3
2023-05-05T05:03:35.209Z,82.6
2023-05-05T05:08:35.067Z,83.1
2023-05-05T05:13:35.086Z,83.1
2023-05-05T05:18:35.107Z,83.5
2023-05-05T05:23:35.102Z,84.1
2023-05-05T05:28:35.119Z,84.2
2023-05-05T05:33:35.089Z,84.2
2023-05-05T05:38:35.086Z,84.4
2023-05-05T05:43:35.107Z,84.8
2023-05-05T05:48:35.103Z,84.7
2023-05-05T05:53:35.125Z,84.6
2023-05-05T05:58:35.127Z,85.3
2023-05-05T06:03:35.288Z,85.1
2023-05-05T06:08:35.107Z,84.9
2023-05-05T06:13:35.107Z,84.7
2023-05-05T06:18:35.110Z,84.4
2023-05-05T06:23:35.126Z,84.0
2023-05-05T06:28:35.145Z,83.9
2023-05-05T06:33:35.127Z,82.2
2023-05-05T06:38:35.138Z,81.4
2023-05-05T06:43:35.126Z,81.2
2023-05-05T06:48:35.129Z,80.6
2023-05-05T06:53:35.156Z,79.9
2023-05-05T06:58:35.163Z,79.8
2023-05-05T07:03:35.194Z,79.6
2023-05-05T07:08:35.155Z,78.8
2023-05-05T07:13:35.147Z,78.3
2023-05-05T07:18:35.157Z,77.8
2023-05-05T07:23:35.171Z,75.8
2023-05-05T07:28:35.220Z,74.4
2023-05-05T07:33:35.163Z,73.7
2023-05-05T07:38:35.169Z,72.5
2023-05-05T07:43:35.193Z,71.7
2023-05-05T07:48:35.172Z,69.9
2023-05-05T07:53:35.196Z,69.7
2023-05-05T07:58:35.203Z,67.8
2023-05-05T08:03:35.384Z,66.7
2023-05-05T08:08:35.178Z,65.6
2023-05-05T08:13:35.189Z,65.2
2023-05-05T08:18:35.195Z,64.3
2023-05-05T08:23:35.216Z,63.5
2023-05-05T08:28:27.156Z,62.3
2023-05-05T08:28:35.131Z,62.3
2023-05-05T08:33:35.226Z,62.2
2023-05-05T08:38:35.204Z,61.0
2023-05-05T08:43:35.211Z,59.2
2023-05-05T08:48:35.205Z,58.9
2023-05-05T08:53:35.234Z,59.3
2023-05-05T08:58:35.212Z,59.2
2023-05-05T09:03:35.317Z,58.1
2023-05-05T09:08:35.217Z,53.2
2023-05-05T09:13:35.220Z,54.3
2023-05-05T09:18:35.215Z,53.9
2023-05-05T09:23:35.244Z,55.4
2023-05-05T09:28:35.269Z,55.5
2023-05-05T09:33:35.265Z,55.2
2023-05-05T09:38:35.244Z,53.3
2023-05-05T09:43:35.241Z,52.4
2023-05-05T09:48:35.280Z,54.0
2023-05-05T09:53:35.267Z,53.9
2023-05-05T09:58:35.258Z,53.7
2023-05-05T10:08:35.293Z,53.5
2023-05-05T10:13:35.258Z,54.8
2023-05-05T10:18:35.314Z,54.6
2023-05-05T10:23:35.276Z,54.5
2023-05-05T10:28:35.279Z,53.8
2023-05-05T10:33:35.370Z,55.5
2023-05-05T10:38:35.314Z,59.1
2023-05-05T10:43:35.289Z,64.5
2023-05-05T10:48:35.325Z,64.8
2023-05-05T10:53:35.316Z,62.4
2023-05-05T10:58:43.679Z,60.0
2023-05-05T11:03:35.347Z,57.5
2023-05-05T11:08:35.372Z,58.6
2023-05-05T11:13:35.312Z,55.2
2023-05-05T11:18:35.300Z,54.3
2023-05-05T11:23:35.333Z,53.4
2023-05-05T11:28:35.327Z,55.4
2023-05-05T11:33:35.319Z,54.0
2023-05-05T11:38:35.350Z,58.4
2023-05-05T11:43:35.322Z,61.6
2023-05-05T11:48:35.320Z,62.9
2023-05-05T11:53:35.357Z,65.7
2023-05-05T11:58:35.338Z,69.3
2023-05-05T12:03:35.475Z,75.1
2023-05-05T12:08:35.357Z,78.7
2023-05-05T12:13:35.361Z,81.9
2023-05-05T12:18:35.336Z,84.2
2023-05-05T12:23:35.356Z,85.1
2023-05-05T12:28:35.349Z,86.1
2023-05-05T12:33:35.349Z,86.9
2023-05-05T12:38:35.389Z,87.4
2023-05-05T12:43:35.381Z,88.6
2023-05-05T12:48:35.396Z,90.6
2023-05-05T12:53:35.386Z,92.9
2023-05-05T12:58:35.375Z,94.8
2023-05-05T13:03:35.409Z,95.9
2023-05-05T13:08:35.421Z,96.5
2023-05-05T13:13:35.382Z,97.4
2023-05-05T13:18:35.393Z,97.7
2023-05-05T13:23:35.406Z,99.6
2023-05-05T13:28:35.399Z,100.0
2023-05-05T13:33:35.432Z,100.0
2023-05-05T13:38:35.420Z,100.0
2023-05-05T13:43:35.393Z,100.0
2023-05-05T13:48:35.406Z,100.0
2023-05-05T13:53:35.421Z,100.0
2023-05-05T13:58:37.107Z,100.0
2023-05-05T14:03:35.416Z,100.0
2023-05-05T14:08:35.441Z,100.0
2023-05-05T14:13:35.409Z,100.0
2023-05-05T14:18:35.416Z,100.0
2023-05-05T14:23:35.457Z,99.5
2023-05-05T14:28:35.421Z,98.1
2023-05-05T14:33:35.434Z,96.7
2023-05-05T14:38:35.515Z,95.6
2023-05-05T14:43:35.434Z,94.4
2023-05-05T14:48:35.442Z,95.0
2023-05-05T14:53:35.485Z,94.2
2023-05-05T14:58:35.449Z,93.1
2023-05-05T15:03:35.592Z,93.6
2023-05-05T15:08:35.483Z,94.8
2023-05-05T15:13:35.459Z,94.1
2023-05-05T15:18:35.463Z,89.4
2023-05-05T15:23:35.485Z,86.1
2023-05-05T15:28:35.455Z,89.5
2023-05-05T15:33:35.464Z,90.8
2023-05-05T15:38:35.500Z,89.1
2023-05-05T15:43:35.462Z,90.0
2023-05-05T15:48:35.470Z,91.5
2023-05-05T15:53:35.488Z,87.1
2023-05-05T15:58:35.477Z,90.4
2023-05-05T16:03:35.494Z,91.4
2023-05-05T16:08:35.529Z,91.0
2023-05-05T16:13:35.494Z,90.2
2023-05-05T16:18:35.505Z,88.7
2023-05-05T16:23:35.519Z,89.3
2023-05-05T16:28:35.517Z,88.7
2023-05-05T16:33:35.498Z,89.6
2023-05-05T16:38:35.536Z,88.2
2023-05-05T16:43:35.510Z,88.8
2023-05-05T16:53:35.541Z,87.7
2023-05-05T16:58:35.516Z,88.5
2023-05-05T17:03:35.532Z,88.1
2023-05-05T17:08:35.552Z,88.5
2023-05-05T17:13:35.529Z,88.3
2023-05-05T17:18:35.535Z,88.8
2023-05-05T17:23:35.543Z,88.3
2023-05-05T17:28:35.539Z,88.4
2023-05-05T17:33:35.541Z,88.7
2023-05-05T17:38:35.558Z,88.5
2023-05-05T17:43:35.544Z,89.1
2023-05-05T17:48:35.608Z,87.4
2023-05-05T17:53:35.571Z,88.6
2023-05-05T17:58:35.561Z,88.9
2023-05-05T18:03:36.733Z,89.3
2023-05-05T18:08:35.578Z,87.9
2023-05-05T18:13:35.564Z,86.4
2023-05-05T18:23:35.606Z,88.6
2023-05-05T18:28:35.573Z,90.0
2023-05-05T18:33:35.570Z,91.2
2023-05-05T18:38:35.611Z,88.8
2023-05-05T18:43:35.599Z,87.7
2023-05-05T18:48:35.633Z,87.6
2023-05-05T18:53:35.613Z,88.8
2023-05-05T18:58:35.587Z,89.0
2023-05-05T19:03:35.610Z,90.1
2023-05-05T19:08:35.618Z,89.7
2023-05-05T19:13:35.616Z,90.2
2023-05-05T19:18:35.620Z,92.0
2023-05-05T19:23:35.617Z,94.1
2023-05-05T19:28:35.611Z,94.9
2023-05-05T19:33:35.601Z,94.9
2023-05-05T19:38:35.638Z,95.3
2023-05-05T19:43:35.627Z,96.6
2023-05-05T19:48:35.619Z,97.5
2023-05-05T19:53:35.642Z,97.4
2023-05-05T19:58:35.627Z,98.4
2023-05-05T20:03:35.758Z,99.0
2023-05-05T20:08:35.657Z,99.6
2023-05-05T20:13:35.648Z,99.9
2023-05-05T20:18:35.638Z,100.0
2023-05-05T20:23:35.678Z,100.0
2023-05-05T20:28:35.650Z,100.0
2023-05-05T20:33:35.651Z,99.8
2023-05-05T20:38:35.689Z,99.7
2023-05-05T20:43:35.655Z,100.0
2023-05-05T20:48:36.940Z,100.0
2023-05-05T20:53:35.685Z,100.0
2023-05-05T20:58:35.686Z,100.0
2023-05-05T21:03:35.668Z,100.0
2023-05-05T21:08:35.698Z,100.0
2023-05-05T21:13:35.667Z,100.0
2023-05-05T21:18:35.676Z,100.0
2023-05-05T21:23:35.700Z,100.0
2023-05-05T21:28:35.675Z,100.0
2023-05-05T21:33:35.677Z,100.0
2023-05-05T21:43:35.723Z,100.0
2023-05-05T21:48:35.702Z,100.0
2023-05-05T21:53:35.703Z,100.0
2023-05-05T21:58:35.704Z,100.0
2023-05-05T22:03:35.889Z,100.0
2023-05-05T22:08:35.701Z,100.0
2023-05-05T22:13:35.731Z,100.0
2023-05-05T22:23:35.786Z,100.0
2023-05-05T22:28:35.722Z,100.0
2023-05-05T22:33:35.721Z,100.0
2023-05-05T22:38:35.723Z,100.0
2023-05-05T22:43:35.766Z,100.0
2023-05-05T22:48:35.733Z,100.0
2023-05-05T22:53:35.736Z,100.0
2023-05-05T22:58:35.724Z,100.0
2023-05-05T23:03:35.754Z,100.0
2023-05-05T23:08:35.752Z,100.0
2023-05-05T23:13:35.766Z,100.0
2023-05-05T23:18:35.750Z,100.0
2023-05-05T23:23:35.854Z,100.0
2023-05-05T23:28:35.771Z,100.0
2023-05-05T23:33:35.764Z,100.0
2023-05-05T23:38:35.760Z,100.0
2023-05-05T23:43:35.814Z,100.0
2023-05-05T23:48:35.770Z,100.0
2023-05-05T23:53:35.786Z,100.0
2023-05-05T23:58:35.773Z,100.0
